sensor_id;sensor_type;location;lat;lon;timestamp;temperature;humidity
51902;DHT22;37929;53.218;6.548;2023-05-18T00:00:36;9.80;99.90
51902;DHT22;37929;53.218;6.548;2023-05-18T00:03:02;9.80;99.90
51902;DHT22;37929;53.218;6.548;2023-05-18T00:05:28;9.70;99.90
51902;DHT22;37929;53.218;6.548;2023-05-18T00:08:01;9.70;99.90
51902;DHT22;37929;53.218;6.548;2023-05-18T00:10:27;9.60;99.90
51902;DHT22;37929;53.218;6.548;2023-05-18T00:12:53;9.60;99.90
51902;DHT22;37929;53.218;6.548;2023-05-18T00:15:20;9.80;99.90
51902;DHT22;37929;53.218;6.548;2023-05-18T00:17:45;9.60;99.90
51902;DHT22;37929;53.218;6.548;2023-05-18T00:20:11;9.60;99.90
51902;DHT22;37929;53.218;6.548;2023-05-18T00:22:37;9.60;99.90
51902;DHT22;37929;53.218;6.548;2023-05-18T00:25:10;9.60;99.90
51902;DHT22;37929;53.218;6.548;2023-05-18T00:27:36;9.60;99.90
51902;DHT22;37929;53.218;6.548;2023-05-18T00:30:01;8.70;99.90
51902;DHT22;37929;53.218;6.548;2023-05-18T00:32:30;9.50;99.90
51902;DHT22;37929;53.218;6.548;2023-05-18T00:34:55;9.90;99.90
51902;DHT22;37929;53.218;6.548;2023-05-18T00:37:21;9.40;99.90
51902;DHT22;37929;53.218;6.548;2023-05-18T00:39:47;9.40;99.90
51902;DHT22;37929;53.218;6.548;2023-05-18T00:42:12;9.40;99.90
51902;DHT22;37929;53.218;6.548;2023-05-18T00:44:38;9.40;99.90
51902;DHT22;37929;53.218;6.548;2023-05-18T00:47:04;9.40;99.90
51902;DHT22;37929;53.218;6.548;2023-05-18T00:49:30;9.50;99.90
51902;DHT22;37929;53.218;6.548;2023-05-18T00:51:56;9.50;99.90
51902;DHT22;37929;53.218;6.548;2023-05-18T00:54:22;9.40;99.90
51902;DHT22;37929;53.218;6.548;2023-05-18T00:56:48;9.40;99.90
51902;DHT22;37929;53.218;6.548;2023-05-18T00:59:14;9.30;99.90
51902;DHT22;37929;53.218;6.548;2023-05-18T01:01:40;9.50;99.90
51902;DHT22;37929;53.218;6.548;2023-05-18T01:04:10;9.40;99.90
51902;DHT22;37929;53.218;6.548;2023-05-18T01:06:39;9.50;99.90
51902;DHT22;37929;53.218;6.548;2023-05-18T01:09:07;9.50;99.90
51902;DHT22;37929;53.218;6.548;2023-05-18T01:14:24;9.90;99.90
51902;DHT22;37929;53.218;6.548;2023-05-18T01:17:01;9.50;99.90
51902;DHT22;37929;53.218;6.548;2023-05-18T01:22:15;9.50;99.90
51902;DHT22;37929;53.218;6.548;2023-05-18T01:24:48;9.50;99.90
51902;DHT22;37929;53.218;6.548;2023-05-18T01:27:16;9.50;99.90
51902;DHT22;37929;53.218;6.548;2023-05-18T01:29:44;9.50;99.90
51902;DHT22;37929;53.218;6.548;2023-05-18T01:32:17;9.60;99.90
51902;DHT22;37929;53.218;6.548;2023-05-18T01:34:44;9.60;99.90
51902;DHT22;37929;53.218;6.548;2023-05-18T01:37:10;9.50;99.90
51902;DHT22;37929;53.218;6.548;2023-05-18T01:39:36;9.50;99.90
51902;DHT22;37929;53.218;6.548;2023-05-18T01:42:07;9.40;99.90
51902;DHT22;37929;53.218;6.548;2023-05-18T01:44:39;9.40;99.90
51902;DHT22;37929;53.218;6.548;2023-05-18T01:47:14;9.40;99.90
51902;DHT22;37929;53.218;6.548;2023-05-18T01:49:58;9.40;99.90
51902;DHT22;37929;53.218;6.548;2023-05-18T01:52:32;9.40;99.90
51902;DHT22;37929;53.218;6.548;2023-05-18T01:55:03;9.40;99.90
51902;DHT22;37929;53.218;6.548;2023-05-18T01:57:31;9.40;99.90
51902;DHT22;37929;53.218;6.548;2023-05-18T02:00:02;9.40;99.90
51902;DHT22;37929;53.218;6.548;2023-05-18T02:02:32;9.70;99.90
51902;DHT22;37929;53.218;6.548;2023-05-18T02:04:58;9.40;99.90
51902;DHT22;37929;53.218;6.548;2023-05-18T02:07:24;9.50;99.90
51902;DHT22;37929;53.218;6.548;2023-05-18T02:09:50;9.50;99.90
51902;DHT22;37929;53.218;6.548;2023-05-18T02:12:15;9.50;99.90
51902;DHT22;37929;53.218;6.548;2023-05-18T02:14:41;9.50;99.90
51902;DHT22;37929;53.218;6.548;2023-05-18T02:17:07;9.50;99.90
51902;DHT22;37929;53.218;6.548;2023-05-18T02:19:35;9.60;99.90
51902;DHT22;37929;53.218;6.548;2023-05-18T02:22:03;9.60;99.90
51902;DHT22;37929;53.218;6.548;2023-05-18T02:24:31;9.60;99.90
51902;DHT22;37929;53.218;6.548;2023-05-18T02:26:57;9.60;99.90
51902;DHT22;37929;53.218;6.548;2023-05-18T02:29:26;9.60;99.90
51902;DHT22;37929;53.218;6.548;2023-05-18T02:31:52;9.70;99.90
51902;DHT22;37929;53.218;6.548;2023-05-18T02:34:18;9.60;99.90
51902;DHT22;37929;53.218;6.548;2023-05-18T02:36:46;9.50;99.90
51902;DHT22;37929;53.218;6.548;2023-05-18T02:39:13;9.50;99.90
51902;DHT22;37929;53.218;6.548;2023-05-18T02:41:38;9.50;99.90
51902;DHT22;37929;53.218;6.548;2023-05-18T02:44:04;9.50;99.90
51902;DHT22;37929;53.218;6.548;2023-05-18T02:46:31;9.40;99.90
51902;DHT22;37929;53.218;6.548;2023-05-18T02:48:57;9.40;99.90
51902;DHT22;37929;53.218;6.548;2023-05-18T02:51:23;9.40;99.90
51902;DHT22;37929;53.218;6.548;2023-05-18T02:53:50;9.40;99.90
51902;DHT22;37929;53.218;6.548;2023-05-18T02:56:16;9.40;99.90
51902;DHT22;37929;53.218;6.548;2023-05-18T02:58:43;9.40;99.90
51902;DHT22;37929;53.218;6.548;2023-05-18T03:01:09;9.50;99.90
51902;DHT22;37929;53.218;6.548;2023-05-18T03:03:37;9.50;99.90
51902;DHT22;37929;53.218;6.548;2023-05-18T03:06:04;9.50;99.90
51902;DHT22;37929;53.218;6.548;2023-05-18T03:08:30;9.50;99.90
51902;DHT22;37929;53.218;6.548;2023-05-18T03:10:57;9.50;99.90
51902;DHT22;37929;53.218;6.548;2023-05-18T03:13:23;9.50;99.90
51902;DHT22;37929;53.218;6.548;2023-05-18T03:15:50;9.50;99.90
51902;DHT22;37929;53.218;6.548;2023-05-18T03:18:17;9.50;99.90
51902;DHT22;37929;53.218;6.548;2023-05-18T03:20:43;9.80;99.90
51902;DHT22;37929;53.218;6.548;2023-05-18T03:23:09;9.50;99.90
51902;DHT22;37929;53.218;6.548;2023-05-18T03:25:35;9.50;99.90
51902;DHT22;37929;53.218;6.548;2023-05-18T03:28:04;9.50;99.90
51902;DHT22;37929;53.218;6.548;2023-05-18T03:30:33;9.50;99.90
51902;DHT22;37929;53.218;6.548;2023-05-18T03:33:02;9.50;99.90
51902;DHT22;37929;53.218;6.548;2023-05-18T03:35:31;9.50;99.90
51902;DHT22;37929;53.218;6.548;2023-05-18T03:37:58;9.50;99.90
51902;DHT22;37929;53.218;6.548;2023-05-18T03:40:24;9.50;99.90
51902;DHT22;37929;53.218;6.548;2023-05-18T03:42:49;9.50;99.90
51902;DHT22;37929;53.218;6.548;2023-05-18T03:45:17;9.50;99.90
51902;DHT22;37929;53.218;6.548;2023-05-18T03:47:42;9.50;99.90
51902;DHT22;37929;53.218;6.548;2023-05-18T03:50:09;9.50;99.90
51902;DHT22;37929;53.218;6.548;2023-05-18T03:52:35;9.50;99.90
51902;DHT22;37929;53.218;6.548;2023-05-18T03:55:02;9.40;99.90
51902;DHT22;37929;53.218;6.548;2023-05-18T03:57:28;9.40;99.90
51902;DHT22;37929;53.218;6.548;2023-05-18T03:59:55;9.40;99.90
51902;DHT22;37929;53.218;6.548;2023-05-18T04:02:21;9.40;99.90
51902;DHT22;37929;53.218;6.548;2023-05-18T04:04:47;9.40;99.90
51902;DHT22;37929;53.218;6.548;2023-05-18T04:07:16;9.40;99.90
51902;DHT22;37929;53.218;6.548;2023-05-18T04:09:42;9.50;99.90
51902;DHT22;37929;53.218;6.548;2023-05-18T04:12:09;9.50;99.90
51902;DHT22;37929;53.218;6.548;2023-05-18T04:14:35;9.50;99.90
51902;DHT22;37929;53.218;6.548;2023-05-18T04:17:01;9.50;99.90
51902;DHT22;37929;53.218;6.548;2023-05-18T04:19:36;9.50;99.90
51902;DHT22;37929;53.218;6.548;2023-05-18T04:22:04;9.50;99.90
51902;DHT22;37929;53.218;6.548;2023-05-18T04:24:33;9.50;99.90
51902;DHT22;37929;53.218;6.548;2023-05-18T04:27:02;9.50;99.90
51902;DHT22;37929;53.218;6.548;2023-05-18T04:29:29;9.40;99.90
51902;DHT22;37929;53.218;6.548;2023-05-18T04:31:55;9.40;99.90
51902;DHT22;37929;53.218;6.548;2023-05-18T04:34:27;9.40;99.90
51902;DHT22;37929;53.218;6.548;2023-05-18T04:36:54;9.40;99.90
51902;DHT22;37929;53.218;6.548;2023-05-18T04:39:21;9.50;99.90
51902;DHT22;37929;53.218;6.548;2023-05-18T04:41:51;9.40;99.90
51902;DHT22;37929;53.218;6.548;2023-05-18T04:44:30;9.40;99.90
51902;DHT22;37929;53.218;6.548;2023-05-18T04:46:59;9.40;99.90
51902;DHT22;37929;53.218;6.548;2023-05-18T04:49:25;9.40;99.90
51902;DHT22;37929;53.218;6.548;2023-05-18T04:51:53;9.30;99.90
51902;DHT22;37929;53.218;6.548;2023-05-18T04:54:27;9.30;99.90
51902;DHT22;37929;53.218;6.548;2023-05-18T04:56:55;9.30;99.90
51902;DHT22;37929;53.218;6.548;2023-05-18T04:59:21;9.30;99.90
51902;DHT22;37929;53.218;6.548;2023-05-18T05:01:51;9.20;99.90
51902;DHT22;37929;53.218;6.548;2023-05-18T05:04:18;9.20;99.90
51902;DHT22;37929;53.218;6.548;2023-05-18T05:06:44;9.30;99.90
51902;DHT22;37929;53.218;6.548;2023-05-18T05:09:10;9.20;99.90
51902;DHT22;37929;53.218;6.548;2023-05-18T05:11:38;9.20;99.90
51902;DHT22;37929;53.218;6.548;2023-05-18T05:14:04;9.20;99.90
51902;DHT22;37929;53.218;6.548;2023-05-18T05:16:33;9.20;99.90
51902;DHT22;37929;53.218;6.548;2023-05-18T05:19:00;9.10;99.90
51902;DHT22;37929;53.218;6.548;2023-05-18T05:21:25;9.10;99.90
51902;DHT22;37929;53.218;6.548;2023-05-18T05:23:51;9.20;99.90
51902;DHT22;37929;53.218;6.548;2023-05-18T05:26:18;9.10;99.90
51902;DHT22;37929;53.218;6.548;2023-05-18T05:28:43;9.50;99.90
51902;DHT22;37929;53.218;6.548;2023-05-18T05:31:09;9.10;99.90
51902;DHT22;37929;53.218;6.548;2023-05-18T05:33:35;9.00;99.90
51902;DHT22;37929;53.218;6.548;2023-05-18T05:36:01;9.10;99.90
51902;DHT22;37929;53.218;6.548;2023-05-18T05:38:47;9.10;99.90
51902;DHT22;37929;53.218;6.548;2023-05-18T05:41:13;9.10;99.90
51902;DHT22;37929;53.218;6.548;2023-05-18T05:43:39;9.10;99.90
51902;DHT22;37929;53.218;6.548;2023-05-18T05:46:04;9.10;99.90
51902;DHT22;37929;53.218;6.548;2023-05-18T05:48:30;9.20;99.90
51902;DHT22;37929;53.218;6.548;2023-05-18T05:50:56;9.10;99.90
51902;DHT22;37929;53.218;6.548;2023-05-18T05:53:22;9.20;99.90
51902;DHT22;37929;53.218;6.548;2023-05-18T05:55:51;9.00;99.90
51902;DHT22;37929;53.218;6.548;2023-05-18T05:58:23;9.20;99.90
51902;DHT22;37929;53.218;6.548;2023-05-18T06:00:49;9.20;99.90
51902;DHT22;37929;53.218;6.548;2023-05-18T06:03:15;9.20;99.90
51902;DHT22;37929;53.218;6.548;2023-05-18T06:05:40;9.20;99.90
51902;DHT22;37929;53.218;6.548;2023-05-18T06:08:06;9.20;99.90
51902;DHT22;37929;53.218;6.548;2023-05-18T06:10:32;9.20;99.90
51902;DHT22;37929;53.218;6.548;2023-05-18T06:12:58;9.20;99.90
51902;DHT22;37929;53.218;6.548;2023-05-18T06:15:23;9.20;99.90
51902;DHT22;37929;53.218;6.548;2023-05-18T06:17:49;9.30;99.90
51902;DHT22;37929;53.218;6.548;2023-05-18T06:20:15;9.30;99.90
51902;DHT22;37929;53.218;6.548;2023-05-18T06:22:41;9.40;99.90
51902;DHT22;37929;53.218;6.548;2023-05-18T06:25:08;9.40;99.90
51902;DHT22;37929;53.218;6.548;2023-05-18T06:27:35;9.40;99.90
51902;DHT22;37929;53.218;6.548;2023-05-18T06:30:00;9.40;99.90
51902;DHT22;37929;53.218;6.548;2023-05-18T06:32:26;9.50;99.90
51902;DHT22;37929;53.218;6.548;2023-05-18T06:34:52;9.60;99.90
51902;DHT22;37929;53.218;6.548;2023-05-18T06:37:18;9.60;99.90
51902;DHT22;37929;53.218;6.548;2023-05-18T06:39:45;9.60;99.90
51902;DHT22;37929;53.218;6.548;2023-05-18T06:42:11;9.60;99.90
51902;DHT22;37929;53.218;6.548;2023-05-18T06:44:36;9.70;99.90
51902;DHT22;37929;53.218;6.548;2023-05-18T06:47:02;9.00;99.90
51902;DHT22;37929;53.218;6.548;2023-05-18T06:49:28;9.70;99.90
51902;DHT22;37929;53.218;6.548;2023-05-18T06:51:54;9.70;99.90
51902;DHT22;37929;53.218;6.548;2023-05-18T06:54:22;10.10;99.90
51902;DHT22;37929;53.218;6.548;2023-05-18T06:56:48;9.80;99.90
51902;DHT22;37929;53.218;6.548;2023-05-18T06:59:14;9.80;99.90
51902;DHT22;37929;53.218;6.548;2023-05-18T07:01:40;9.70;99.90
51902;DHT22;37929;53.218;6.548;2023-05-18T07:04:06;9.80;99.90
51902;DHT22;37929;53.218;6.548;2023-05-18T07:06:32;9.80;99.90
51902;DHT22;37929;53.218;6.548;2023-05-18T07:08:57;9.90;99.90
51902;DHT22;37929;53.218;6.548;2023-05-18T07:11:23;9.90;99.90
51902;DHT22;37929;53.218;6.548;2023-05-18T07:13:49;10.00;99.90
51902;DHT22;37929;53.218;6.548;2023-05-18T07:16:15;10.00;99.90
51902;DHT22;37929;53.218;6.548;2023-05-18T07:18:44;10.10;99.90
51902;DHT22;37929;53.218;6.548;2023-05-18T07:21:16;10.20;99.90
51902;DHT22;37929;53.218;6.548;2023-05-18T07:23:42;10.20;99.90
51902;DHT22;37929;53.218;6.548;2023-05-18T07:26:10;10.50;99.90
51902;DHT22;37929;53.218;6.548;2023-05-18T07:28:37;10.20;99.90
51902;DHT22;37929;53.218;6.548;2023-05-18T07:31:03;10.40;99.90
51902;DHT22;37929;53.218;6.548;2023-05-18T07:33:29;10.40;99.90
51902;DHT22;37929;53.218;6.548;2023-05-18T07:35:55;10.40;99.90
51902;DHT22;37929;53.218;6.548;2023-05-18T07:38:24;10.50;99.90
51902;DHT22;37929;53.218;6.548;2023-05-18T07:40:49;10.50;99.90
51902;DHT22;37929;53.218;6.548;2023-05-18T07:43:15;10.50;99.90
51902;DHT22;37929;53.218;6.548;2023-05-18T07:45:41;10.60;99.90
51902;DHT22;37929;53.218;6.548;2023-05-18T07:48:07;10.60;99.90
51902;DHT22;37929;53.218;6.548;2023-05-18T07:50:32;10.70;99.90
51902;DHT22;37929;53.218;6.548;2023-05-18T07:52:59;10.70;99.90
51902;DHT22;37929;53.218;6.548;2023-05-18T07:55:25;10.80;99.90
51902;DHT22;37929;53.218;6.548;2023-05-18T07:57:51;10.80;99.90
51902;DHT22;37929;53.218;6.548;2023-05-18T08:00:17;10.90;99.90
51902;DHT22;37929;53.218;6.548;2023-05-18T08:02:43;10.80;99.90
51902;DHT22;37929;53.218;6.548;2023-05-18T08:05:10;10.80;99.90
51902;DHT22;37929;53.218;6.548;2023-05-18T08:07:36;10.70;99.90
51902;DHT22;37929;53.218;6.548;2023-05-18T08:10:03;10.80;99.90
51902;DHT22;37929;53.218;6.548;2023-05-18T08:12:29;10.80;99.90
51902;DHT22;37929;53.218;6.548;2023-05-18T08:14:55;10.80;99.90
51902;DHT22;37929;53.218;6.548;2023-05-18T08:17:21;10.90;99.90
51902;DHT22;37929;53.218;6.548;2023-05-18T08:19:47;11.00;99.90
51902;DHT22;37929;53.218;6.548;2023-05-18T08:22:16;11.10;99.90
51902;DHT22;37929;53.218;6.548;2023-05-18T08:24:42;11.20;99.90
51902;DHT22;37929;53.218;6.548;2023-05-18T08:27:07;11.20;99.90
51902;DHT22;37929;53.218;6.548;2023-05-18T08:29:36;11.20;99.90
51902;DHT22;37929;53.218;6.548;2023-05-18T08:32:04;11.20;99.90
51902;DHT22;37929;53.218;6.548;2023-05-18T08:34:31;11.20;99.90
51902;DHT22;37929;53.218;6.548;2023-05-18T08:36:57;11.30;99.90
51902;DHT22;37929;53.218;6.548;2023-05-18T08:39:23;11.40;99.90
51902;DHT22;37929;53.218;6.548;2023-05-18T08:42:02;11.50;99.90
51902;DHT22;37929;53.218;6.548;2023-05-18T08:44:44;11.60;99.90
51902;DHT22;37929;53.218;6.548;2023-05-18T08:47:13;11.70;99.90
51902;DHT22;37929;53.218;6.548;2023-05-18T08:49:41;11.80;99.90
51902;DHT22;37929;53.218;6.548;2023-05-18T08:52:07;11.70;99.90
51902;DHT22;37929;53.218;6.548;2023-05-18T08:54:35;11.80;99.90
51902;DHT22;37929;53.218;6.548;2023-05-18T08:57:06;11.90;99.90
51902;DHT22;37929;53.218;6.548;2023-05-18T08:59:37;11.90;99.90
51902;DHT22;37929;53.218;6.548;2023-05-18T09:02:04;11.90;99.90
51902;DHT22;37929;53.218;6.548;2023-05-18T09:04:31;11.90;99.90
51902;DHT22;37929;53.218;6.548;2023-05-18T09:07:04;11.90;99.90
51902;DHT22;37929;53.218;6.548;2023-05-18T09:09:31;12.00;99.90
51902;DHT22;37929;53.218;6.548;2023-05-18T09:12:01;12.10;99.90
51902;DHT22;37929;53.218;6.548;2023-05-18T09:14:28;12.20;99.90
51902;DHT22;37929;53.218;6.548;2023-05-18T09:16:54;12.40;99.90
51902;DHT22;37929;53.218;6.548;2023-05-18T09:19:22;12.20;99.90
51902;DHT22;37929;53.218;6.548;2023-05-18T09:21:49;12.20;99.90
51902;DHT22;37929;53.218;6.548;2023-05-18T09:24:15;12.30;99.90
51902;DHT22;37929;53.218;6.548;2023-05-18T09:26:43;12.30;99.90
51902;DHT22;37929;53.218;6.548;2023-05-18T09:29:17;12.40;99.90
51902;DHT22;37929;53.218;6.548;2023-05-18T09:31:46;12.40;99.90
51902;DHT22;37929;53.218;6.548;2023-05-18T09:34:13;12.40;99.90
51902;DHT22;37929;53.218;6.548;2023-05-18T09:36:39;12.50;99.90
51902;DHT22;37929;53.218;6.548;2023-05-18T09:39:10;12.40;99.90
51902;DHT22;37929;53.218;6.548;2023-05-18T09:41:39;12.50;99.90
51902;DHT22;37929;53.218;6.548;2023-05-18T09:44:06;12.60;99.90
51902;DHT22;37929;53.218;6.548;2023-05-18T09:46:40;12.60;99.90
51902;DHT22;37929;53.218;6.548;2023-05-18T09:49:07;12.70;99.90
51902;DHT22;37929;53.218;6.548;2023-05-18T09:51:37;12.70;99.90
51902;DHT22;37929;53.218;6.548;2023-05-18T09:54:06;12.70;99.90
51902;DHT22;37929;53.218;6.548;2023-05-18T09:56:36;12.70;99.90
51902;DHT22;37929;53.218;6.548;2023-05-18T09:59:10;12.80;99.90
51902;DHT22;37929;53.218;6.548;2023-05-18T10:01:53;12.80;99.90
51902;DHT22;37929;53.218;6.548;2023-05-18T10:04:19;12.80;99.90
51902;DHT22;37929;53.218;6.548;2023-05-18T10:06:49;12.80;99.90
51902;DHT22;37929;53.218;6.548;2023-05-18T10:09:17;12.70;99.90
51902;DHT22;37929;53.218;6.548;2023-05-18T10:11:43;12.70;99.90
51902;DHT22;37929;53.218;6.548;2023-05-18T10:14:12;12.70;99.90
51902;DHT22;37929;53.218;6.548;2023-05-18T10:16:39;12.80;99.90
51902;DHT22;37929;53.218;6.548;2023-05-18T10:19:07;12.80;99.90
51902;DHT22;37929;53.218;6.548;2023-05-18T10:21:36;12.80;99.90
51902;DHT22;37929;53.218;6.548;2023-05-18T10:24:06;12.90;99.90
51902;DHT22;37929;53.218;6.548;2023-05-18T10:26:34;12.90;99.90
51902;DHT22;37929;53.218;6.548;2023-05-18T10:29:03;12.90;99.90
51902;DHT22;37929;53.218;6.548;2023-05-18T10:31:30;13.00;99.90
51902;DHT22;37929;53.218;6.548;2023-05-18T10:34:00;13.00;99.90
51902;DHT22;37929;53.218;6.548;2023-05-18T10:36:32;13.00;99.90
51902;DHT22;37929;53.218;6.548;2023-05-18T10:39:02;13.00;99.90
51902;DHT22;37929;53.218;6.548;2023-05-18T10:41:29;13.00;99.90
51902;DHT22;37929;53.218;6.548;2023-05-18T10:43:59;12.90;99.90
51902;DHT22;37929;53.218;6.548;2023-05-18T10:46:29;12.90;99.90
51902;DHT22;37929;53.218;6.548;2023-05-18T10:49:00;12.90;99.90
51902;DHT22;37929;53.218;6.548;2023-05-18T10:51:29;12.90;99.90
51902;DHT22;37929;53.218;6.548;2023-05-18T10:54:09;12.90;99.90
51902;DHT22;37929;53.218;6.548;2023-05-18T10:56:35;13.00;99.90
51902;DHT22;37929;53.218;6.548;2023-05-18T10:59:03;13.00;99.90
51902;DHT22;37929;53.218;6.548;2023-05-18T11:01:33;13.00;99.90
51902;DHT22;37929;53.218;6.548;2023-05-18T11:04:05;13.10;99.90
51902;DHT22;37929;53.218;6.548;2023-05-18T11:06:30;13.20;99.90
51902;DHT22;37929;53.218;6.548;2023-05-18T11:09:02;13.30;99.90
51902;DHT22;37929;53.218;6.548;2023-05-18T11:11:29;13.40;99.90
51902;DHT22;37929;53.218;6.548;2023-05-18T11:14:05;13.40;99.90
51902;DHT22;37929;53.218;6.548;2023-05-18T11:16:33;13.50;99.90
51902;DHT22;37929;53.218;6.548;2023-05-18T11:19:07;13.50;99.90
51902;DHT22;37929;53.218;6.548;2023-05-18T11:24:35;13.60;99.90
51902;DHT22;37929;53.218;6.548;2023-05-18T11:27:14;13.60;99.90
51902;DHT22;37929;53.218;6.548;2023-05-18T11:29:44;13.70;99.90
51902;DHT22;37929;53.218;6.548;2023-05-18T11:32:27;13.80;99.90
51902;DHT22;37929;53.218;6.548;2023-05-18T11:34:55;13.80;99.90
51902;DHT22;37929;53.218;6.548;2023-05-18T11:40:03;13.80;99.90
51902;DHT22;37929;53.218;6.548;2023-05-18T11:42:33;13.80;99.90
51902;DHT22;37929;53.218;6.548;2023-05-18T11:45:09;13.80;99.90
51902;DHT22;37929;53.218;6.548;2023-05-18T11:47:35;13.80;99.90
51902;DHT22;37929;53.218;6.548;2023-05-18T11:50:05;13.80;99.90
51902;DHT22;37929;53.218;6.548;2023-05-18T11:52:32;13.80;99.90
51902;DHT22;37929;53.218;6.548;2023-05-18T11:54:59;13.90;99.90
51902;DHT22;37929;53.218;6.548;2023-05-18T12:00:01;14.20;99.90
51902;DHT22;37929;53.218;6.548;2023-05-18T12:02:35;14.30;99.90
51902;DHT22;37929;53.218;6.548;2023-05-18T12:05:09;14.40;99.90
51902;DHT22;37929;53.218;6.548;2023-05-18T12:07:36;14.50;99.90
51902;DHT22;37929;53.218;6.548;2023-05-18T12:10:11;14.60;99.90
51902;DHT22;37929;53.218;6.548;2023-05-18T12:12:37;14.70;99.90
51902;DHT22;37929;53.218;6.548;2023-05-18T12:15:08;14.80;99.90
51902;DHT22;37929;53.218;6.548;2023-05-18T12:20:12;14.80;99.90
51902;DHT22;37929;53.218;6.548;2023-05-18T12:22:41;14.70;99.90
51902;DHT22;37929;53.218;6.548;2023-05-18T12:25:08;14.60;99.90
51902;DHT22;37929;53.218;6.548;2023-05-18T12:27:44;14.60;99.90
51902;DHT22;37929;53.218;6.548;2023-05-18T12:30:22;14.50;99.90
51902;DHT22;37929;53.218;6.548;2023-05-18T12:32:51;14.60;99.90
51902;DHT22;37929;53.218;6.548;2023-05-18T12:35:26;14.70;99.90
51902;DHT22;37929;53.218;6.548;2023-05-18T12:37:53;14.80;99.90
51902;DHT22;37929;53.218;6.548;2023-05-18T12:40:21;14.90;99.90
51902;DHT22;37929;53.218;6.548;2023-05-18T12:42:51;14.80;99.90
51902;DHT22;37929;53.218;6.548;2023-05-18T12:45:18;14.90;99.90
51902;DHT22;37929;53.218;6.548;2023-05-18T12:47:44;14.90;99.90
51902;DHT22;37929;53.218;6.548;2023-05-18T12:50:10;15.00;99.90
51902;DHT22;37929;53.218;6.548;2023-05-18T12:52:36;14.90;99.90
51902;DHT22;37929;53.218;6.548;2023-05-18T12:55:09;14.90;99.90
51902;DHT22;37929;53.218;6.548;2023-05-18T12:58:05;14.90;99.90
51902;DHT22;37929;53.218;6.548;2023-05-18T13:00:36;14.90;99.90
51902;DHT22;37929;53.218;6.548;2023-05-18T13:03:15;14.80;99.90
51902;DHT22;37929;53.218;6.548;2023-05-18T13:06:01;14.80;99.90
51902;DHT22;37929;53.218;6.548;2023-05-18T13:08:27;14.80;99.90
51902;DHT22;37929;53.218;6.548;2023-05-18T13:10:53;14.80;99.90
51902;DHT22;37929;53.218;6.548;2023-05-18T13:13:19;14.70;99.90
51902;DHT22;37929;53.218;6.548;2023-05-18T13:15:48;14.70;99.90
51902;DHT22;37929;53.218;6.548;2023-05-18T13:18:15;14.70;99.90
51902;DHT22;37929;53.218;6.548;2023-05-18T13:23:22;14.70;99.90
51902;DHT22;37929;53.218;6.548;2023-05-18T13:25:48;14.70;99.90
51902;DHT22;37929;53.218;6.548;2023-05-18T13:28:16;14.70;99.90
51902;DHT22;37929;53.218;6.548;2023-05-18T13:30:47;14.70;99.90
51902;DHT22;37929;53.218;6.548;2023-05-18T13:33:14;14.70;99.90
51902;DHT22;37929;53.218;6.548;2023-05-18T13:35:41;14.70;99.90
51902;DHT22;37929;53.218;6.548;2023-05-18T13:38:08;14.70;99.90
51902;DHT22;37929;53.218;6.548;2023-05-18T13:40:35;14.70;99.90
51902;DHT22;37929;53.218;6.548;2023-05-18T13:43:01;14.80;99.90
51902;DHT22;37929;53.218;6.548;2023-05-18T13:45:26;14.70;99.90
51902;DHT22;37929;53.218;6.548;2023-05-18T13:47:52;14.70;99.90
51902;DHT22;37929;53.218;6.548;2023-05-18T13:50:19;14.70;99.90
51902;DHT22;37929;53.218;6.548;2023-05-18T13:52:45;14.70;99.90
51902;DHT22;37929;53.218;6.548;2023-05-18T13:55:12;14.80;99.90
51902;DHT22;37929;53.218;6.548;2023-05-18T13:57:38;14.70;99.90
51902;DHT22;37929;53.218;6.548;2023-05-18T14:00:04;14.80;99.90
51902;DHT22;37929;53.218;6.548;2023-05-18T14:02:35;14.80;99.90
51902;DHT22;37929;53.218;6.548;2023-05-18T14:05:02;14.80;99.90
51902;DHT22;37929;53.218;6.548;2023-05-18T14:07:29;14.70;99.90
51902;DHT22;37929;53.218;6.548;2023-05-18T14:09:55;14.80;99.90
51902;DHT22;37929;53.218;6.548;2023-05-18T14:12:20;14.80;99.90
51902;DHT22;37929;53.218;6.548;2023-05-18T14:14:46;14.70;99.90
51902;DHT22;37929;53.218;6.548;2023-05-18T14:17:12;14.70;99.90
51902;DHT22;37929;53.218;6.548;2023-05-18T14:19:38;14.70;99.90
51902;DHT22;37929;53.218;6.548;2023-05-18T14:22:04;14.70;99.90
51902;DHT22;37929;53.218;6.548;2023-05-18T14:24:30;14.70;99.90
51902;DHT22;37929;53.218;6.548;2023-05-18T14:26:56;14.70;99.90
51902;DHT22;37929;53.218;6.548;2023-05-18T14:29:22;14.80;99.90
51902;DHT22;37929;53.218;6.548;2023-05-18T14:31:48;14.80;99.90
51902;DHT22;37929;53.218;6.548;2023-05-18T14:34:13;14.80;99.90
51902;DHT22;37929;53.218;6.548;2023-05-18T14:36:39;14.80;99.90
51902;DHT22;37929;53.218;6.548;2023-05-18T14:39:14;14.80;99.90
51902;DHT22;37929;53.218;6.548;2023-05-18T14:41:40;14.70;99.90
51902;DHT22;37929;53.218;6.548;2023-05-18T14:44:05;14.90;99.90
51902;DHT22;37929;53.218;6.548;2023-05-18T14:46:37;14.90;99.90
51902;DHT22;37929;53.218;6.548;2023-05-18T14:49:03;14.90;99.90
51902;DHT22;37929;53.218;6.548;2023-05-18T14:51:28;14.90;99.90
51902;DHT22;37929;53.218;6.548;2023-05-18T14:53:54;14.90;99.90
51902;DHT22;37929;53.218;6.548;2023-05-18T14:56:20;14.90;99.90
51902;DHT22;37929;53.218;6.548;2023-05-18T14:58:46;14.90;99.90
51902;DHT22;37929;53.218;6.548;2023-05-18T15:01:12;15.00;99.90
51902;DHT22;37929;53.218;6.548;2023-05-18T15:03:37;15.00;99.90
51902;DHT22;37929;53.218;6.548;2023-05-18T15:06:04;15.00;99.90
51902;DHT22;37929;53.218;6.548;2023-05-18T15:08:29;15.10;99.90
51902;DHT22;37929;53.218;6.548;2023-05-18T15:10:55;15.10;99.90
51902;DHT22;37929;53.218;6.548;2023-05-18T15:13:21;15.10;99.90
51902;DHT22;37929;53.218;6.548;2023-05-18T15:15:48;15.10;99.90
51902;DHT22;37929;53.218;6.548;2023-05-18T15:18:14;15.20;99.90
51902;DHT22;37929;53.218;6.548;2023-05-18T15:20:42;15.20;99.90
51902;DHT22;37929;53.218;6.548;2023-05-18T15:23:08;15.20;99.90
51902;DHT22;37929;53.218;6.548;2023-05-18T15:25:36;15.20;99.90
51902;DHT22;37929;53.218;6.548;2023-05-18T15:28:02;15.10;99.90
51902;DHT22;37929;53.218;6.548;2023-05-18T15:30:28;15.10;99.90
51902;DHT22;37929;53.218;6.548;2023-05-18T15:33:00;15.00;99.90
51902;DHT22;37929;53.218;6.548;2023-05-18T15:35:27;15.00;99.90
51902;DHT22;37929;53.218;6.548;2023-05-18T15:37:54;14.90;99.90
51902;DHT22;37929;53.218;6.548;2023-05-18T15:40:28;14.90;99.90
51902;DHT22;37929;53.218;6.548;2023-05-18T15:42:55;14.90;99.90
51902;DHT22;37929;53.218;6.548;2023-05-18T15:45:24;15.00;99.90
51902;DHT22;37929;53.218;6.548;2023-05-18T15:47:50;15.00;99.90
51902;DHT22;37929;53.218;6.548;2023-05-18T15:50:16;15.00;99.90
51902;DHT22;37929;53.218;6.548;2023-05-18T15:52:42;15.00;99.90
51902;DHT22;37929;53.218;6.548;2023-05-18T15:55:08;14.90;99.90
51902;DHT22;37929;53.218;6.548;2023-05-18T15:57:34;14.90;99.90
51902;DHT22;37929;53.218;6.548;2023-05-18T16:00:01;14.80;99.90